Time;durP1;ratioP1;P1;durP2;ratioP2;P2;SDS_P1;SDS_P2;PMS_P1;PMS_P2;Temp;Humidity;BMP_temperature;BMP_pressure;BME280_temperature;BME280_humidity;BME280_pressure;Samples;Min_cycle;Max_cycle;Signal;HPM_P1;HPM_P2
2021/12/02 00:01:57;;;;;;;1.57;0.90;;;;;;;;;;5092662;28;20507;-76
2021/12/02 00:04:26;;;;;;;1.83;0.87;;;;;;;;;;5091966;28;20451;-75
2021/12/02 00:06:53;;;;;;;2.37;1.20;;;;;;;;;;5093220;28;20479;-76
2021/12/02 00:09:21;;;;;;;2.80;0.83;;;;;;;;;;5091949;28;20433;-76
2021/12/02 00:11:49;;;;;;;0.80;0.70;;;;;;;;;;5093110;28;20439;-75
2021/12/02 00:14:23;;;;;;;3.13;0.90;;;;;;;;;;5108560;28;20467;-75
2021/12/02 00:17:03;;;;;;;1.70;0.83;;;;;;;;;;5110095;28;20455;-75
2021/12/02 00:22:14;;;;;;;0.97;0.77;;;;;;;;;;5070038;28;20460;-75
2021/12/02 00:24:43;;;;;;;2.00;0.80;;;;;;;;;;5092461;28;20519;-76
2021/12/02 00:27:12;;;;;;;2.13;0.73;;;;;;;;;;5078248;28;20440;-74
2021/12/02 00:29:39;;;;;;;0.87;0.50;;;;;;;;;;5092694;28;20448;-76
2021/12/02 00:32:08;;;;;;;1.33;0.70;;;;;;;;;;5092626;28;20436;-76
2021/12/02 00:34:37;;;;;;;1.10;0.70;;;;;;;;;;5104868;28;20496;-75
2021/12/02 00:37:05;;;;;;;1.10;1.00;;;;;;;;;;5116974;28;20492;-70
2021/12/02 00:42:09;;;;;;;0.70;0.50;;;;;;;;;;4315714;22;20870;-76
2021/12/02 00:44:38;;;;;;;0.80;0.70;;;;;;;;;;5067464;28;20450;-76
2021/12/02 00:47:07;;;;;;;0.83;0.67;;;;;;;;;;5062571;28;20628;-74
2021/12/02 00:49:34;;;;;;;2.00;0.87;;;;;;;;;;5066290;28;20442;-75
2021/12/02 00:52:02;;;;;;;0.90;0.70;;;;;;;;;;5056364;28;20532;-74
2021/12/02 00:54:30;;;;;;;0.80;0.70;;;;;;;;;;5070102;28;20883;-76
2021/12/02 00:56:57;;;;;;;2.17;0.97;;;;;;;;;;5052886;28;20450;-76
2021/12/02 00:59:26;;;;;;;4.30;0.73;;;;;;;;;;5058812;28;20453;-76
2021/12/02 01:01:54;;;;;;;1.77;1.10;;;;;;;;;;5068019;28;20454;-76
2021/12/02 01:04:23;;;;;;;1.00;0.60;;;;;;;;;;5067510;28;20952;-73
2021/12/02 01:06:51;;;;;;;1.07;0.90;;;;;;;;;;5051032;28;20449;-75
2021/12/02 01:09:18;;;;;;;1.20;0.80;;;;;;;;;;5070584;28;20459;-75
2021/12/02 01:11:45;;;;;;;0.73;0.60;;;;;;;;;;5051514;28;20537;-71
2021/12/02 01:14:13;;;;;;;1.07;0.73;;;;;;;;;;5063272;28;20465;-76
2021/12/02 01:16:40;;;;;;;1.60;0.90;;;;;;;;;;5055326;28;20528;-76
2021/12/02 01:19:09;;;;;;;4.70;1.03;;;;;;;;;;5055533;28;21022;-75
2021/12/02 01:21:38;;;;;;;0.90;0.70;;;;;;;;;;5070074;28;20811;-76
2021/12/02 01:24:06;;;;;;;3.07;0.80;;;;;;;;;;5063639;28;20958;-75
2021/12/02 01:26:34;;;;;;;0.87;0.50;;;;;;;;;;5069804;28;20491;-76
2021/12/02 01:29:02;;;;;;;1.70;0.90;;;;;;;;;;5050887;28;20452;-75
2021/12/02 01:31:31;;;;;;;0.97;0.60;;;;;;;;;;5060150;28;20450;-75
2021/12/02 01:34:01;;;;;;;1.13;0.80;;;;;;;;;;5068629;28;20977;-75
2021/12/02 01:36:33;;;;;;;0.80;0.60;;;;;;;;;;5051626;28;20454;-74
2021/12/02 01:39:00;;;;;;;1.33;0.80;;;;;;;;;;5069282;28;20450;-75
2021/12/02 01:41:28;;;;;;;0.67;0.57;;;;;;;;;;5066094;28;20468;-75
2021/12/02 01:43:56;;;;;;;1.93;1.00;;;;;;;;;;5069726;28;20493;-76
2021/12/02 01:46:24;;;;;;;1.33;1.07;;;10.40;1.00;;;;;;5070615;28;20544;-77
2021/12/02 01:49:00;;;;;;;2.23;0.80;;;6.20;1.00;;;;;;5068384;28;20993;-75
2021/12/02 01:51:30;;;;;;;0.90;0.70;;;6.10;99.90;;;;;;5056595;28;20457;-75
2021/12/02 01:54:05;;;;;;;4.40;2.33;;;6.00;99.90;;;;;;5054557;28;20448;-76
2021/12/02 01:56:41;;;;;;;1.37;0.90;;;6.00;99.90;;;;;;5061939;28;20450;-76
2021/12/02 01:59:14;;;;;;;1.37;0.90;;;6.00;99.90;;;;;;5078963;28;20768;-75
2021/12/02 02:01:43;;;;;;;1.20;0.77;;;6.00;99.90;;;;;;5081507;28;20466;-74
2021/12/02 02:04:10;;;;;;;1.30;0.83;;;6.00;99.90;;;;;;5073205;28;20904;-74
2021/12/02 02:06:41;;;;;;;1.73;0.93;;;6.00;99.90;;;;;;5074951;28;20483;-75
2021/12/02 02:09:11;;;;;;;1.73;0.80;;;6.00;99.90;;;;;;5062715;28;20474;-74
2021/12/02 02:11:38;;;;;;;0.77;0.70;;;;;;;;;;5054450;28;20442;-74
2021/12/02 02:14:09;;;;;;;1.57;0.80;;;;;;;;;;5066364;28;20460;-73
2021/12/02 02:16:38;;;;;;;1.20;0.70;;;;;;;;;;5059793;28;20532;-74
2021/12/02 02:19:06;;;;;;;1.43;0.87;;;;;;;;;;5073104;28;20441;-73
2021/12/02 02:21:36;;;;;;;1.00;0.70;;;;;;;;;;5054170;28;20446;-74
2021/12/02 02:24:04;;;;;;;1.50;0.80;;;;;;;;;;5068966;28;20466;-74
2021/12/02 02:26:34;;;;;;;1.43;0.73;;;;;;;;;;5066116;28;20442;-73
2021/12/02 02:29:02;;;;;;;1.10;0.60;;;;;;;;;;5064494;28;20965;-73
2021/12/02 02:31:30;;;;;;;1.27;0.80;;;;;;;;;;5053993;28;20526;-73
2021/12/02 02:33:57;;;;;;;2.13;0.70;;;;;;;;;;5070467;28;20457;-74
2021/12/02 02:36:26;;;;;;;0.70;0.60;;;;;;;;;;5073994;28;20450;-73
2021/12/02 02:38:56;;;;;;;1.40;0.83;;;;;;;;;;5063442;28;20510;-73
2021/12/02 02:41:24;;;;;;;1.60;0.80;;;;;;;;;;5071029;28;20447;-73
2021/12/02 02:43:52;;;;;;;1.30;0.80;;;;;;;;;;5069383;28;20485;-73
2021/12/02 02:46:23;;;;;;;1.87;1.00;;;;;;;;;;5073856;28;20441;-74
2021/12/02 02:48:50;;;;;;;1.67;0.60;;;;;;;;;;5071720;28;20532;-71
2021/12/02 02:51:17;;;;;;;2.10;0.70;;;;;;;;;;5065445;28;20442;-72
2021/12/02 02:53:44;;;;;;;1.10;0.60;;;;;;;;;;5068990;28;20451;-74
2021/12/02 02:56:15;;;;;;;1.90;0.70;;;;;;;;;;5053964;28;20492;-74
2021/12/02 02:58:59;;;;;;;2.40;0.60;;;;;;;;;;5059135;28;20458;-74
2021/12/02 03:04:22;;;;;;;1.47;0.90;;;;;;;;;;5052642;28;21101;-73
2021/12/02 03:06:53;;;;;;;1.00;0.70;;;5.90;99.90;;;;;;5062206;28;20446;-70
2021/12/02 03:09:27;;;;;;;0.70;0.50;;;4.90;99.90;;;;;;5063812;28;21008;-74
2021/12/02 03:11:59;;;;;;;1.37;0.67;;;4.90;99.90;;;;;;5052415;28;20465;-73
2021/12/02 03:14:32;;;;;;;1.67;0.87;;;5.00;99.90;;;;;;5063532;28;20503;-72
2021/12/02 03:16:58;;;;;;;1.00;0.63;;;5.10;99.90;;;;;;5071312;28;20467;-73
2021/12/02 03:19:26;;;;;;;1.30;0.83;;;4.80;99.90;;;;;;5067123;28;20453;-73
2021/12/02 03:21:54;;;;;;;1.00;0.90;;;4.80;99.90;;;;;;5058534;28;20442;-73
2021/12/02 03:24:22;;;;;;;1.40;0.90;;;4.70;99.90;;;;;;5072426;28;20576;-73
2021/12/02 03:26:49;;;;;;;0.90;0.60;;;4.90;99.90;;;;;;5058428;28;20498;-71
2021/12/02 03:29:17;;;;;;;0.70;0.60;;;4.80;99.90;;;;;;5062947;28;20451;-74
2021/12/02 03:31:44;;;;;;;1.30;0.77;;;4.80;99.90;;;;;;5059862;28;20528;-74
2021/12/02 03:34:12;;;;;;;2.67;1.30;;;4.80;99.90;;;;;;5069917;28;20453;-75
2021/12/02 03:36:39;;;;;;;0.87;0.67;;;4.80;99.90;;;;;;5061681;28;20481;-74
2021/12/02 03:39:08;;;;;;;1.00;0.83;;;4.70;99.90;;;;;;5059331;28;20537;-74
2021/12/02 03:41:35;;;;;;;2.20;0.80;;;4.80;99.90;;;;;;5060891;28;20446;-75
2021/12/02 03:44:02;;;;;;;2.07;0.80;;;4.70;99.90;;;;;;5067786;28;20583;-74
2021/12/02 03:46:30;;;;;;;2.70;0.60;;;4.60;99.90;;;;;;5071895;28;20936;-74
2021/12/02 03:48:58;;;;;;;1.00;0.60;;;4.70;99.90;;;;;;5059577;28;20532;-74
2021/12/02 03:51:25;;;;;;;0.93;0.70;;;4.70;99.90;;;;;;5072130;28;20874;-75
2021/12/02 03:53:52;;;;;;;3.10;1.20;;;4.70;99.90;;;;;;5056085;28;20450;-73
2021/12/02 03:56:19;;;;;;;1.20;0.97;;;4.70;99.90;;;;;;5061048;28;20526;-75
2021/12/02 03:58:48;;;;;;;2.03;0.80;;;4.60;99.90;;;;;;5057093;28;20446;-74
2021/12/02 04:01:16;;;;;;;1.10;0.80;;;4.70;99.90;;;;;;5062749;28;20530;-75
2021/12/02 04:03:45;;;;;;;1.50;0.90;;;4.70;99.90;;;;;;5066038;28;20484;-74
2021/12/02 04:06:13;;;;;;;1.30;0.80;;;4.70;99.90;;;;;;5060846;28;20472;-75
2021/12/02 04:08:44;;;;;;;2.60;0.90;;;4.60;99.90;;;;;;5062860;28;20447;-74
2021/12/02 04:11:21;;;;;;;0.97;0.67;;;4.60;99.90;;;;;;5051301;28;21309;-74
2021/12/02 04:13:58;;;;;;;1.00;0.77;;;4.60;99.90;;;;;;5052514;28;20948;-71
2021/12/02 04:16:27;;;;;;;2.60;0.90;;;4.60;99.90;;;;;;5053113;28;20790;-74
2021/12/02 04:18:55;;;;;;;1.20;0.70;;;4.60;99.90;;;;;;5069594;28;20477;-75
2021/12/02 04:21:22;;;;;;;2.13;0.80;;;4.70;99.90;;;;;;5069236;28;20960;-73
2021/12/02 04:23:49;;;;;;;2.57;1.00;;;4.70;99.90;;;;;;5069259;28;20497;-71
2021/12/02 04:26:16;;;;;;;1.17;0.80;;;4.80;99.90;;;;;;5068823;28;20865;-75
2021/12/02 04:28:43;;;;;;;0.77;0.60;;;4.80;99.90;;;;;;5071745;28;20524;-75
2021/12/02 04:31:09;;;;;;;1.07;0.80;;;4.90;99.90;;;;;;5058563;28;20540;-75
2021/12/02 04:33:37;;;;;;;1.63;0.50;;;5.00;99.90;;;;;;5053696;28;20540;-73
2021/12/02 04:36:06;;;;;;;1.47;0.80;;;5.10;99.90;;;;;;5064192;28;20452;-74
2021/12/02 04:38:34;;;;;;;0.90;0.70;;;5.00;99.90;;;;;;5069455;28;20454;-74
2021/12/02 04:41:01;;;;;;;2.90;0.97;;;5.00;99.90;;;;;;5062662;28;20509;-73
2021/12/02 04:43:28;;;;;;;2.10;0.80;;;5.10;99.90;;;;;;5081139;28;20524;-72
2021/12/02 04:45:55;;;;;;;1.07;0.90;;;5.10;99.90;;;;;;5086991;28;20474;-74
2021/12/02 04:48:22;;;;;;;1.00;0.77;;;5.00;99.90;;;;;;5057621;28;21032;-73
2021/12/02 04:50:50;;;;;;;1.33;0.90;;;5.20;99.90;;;;;;5052505;28;20533;-70
2021/12/02 04:53:19;;;;;;;1.40;0.80;;;5.30;99.90;;;;;;5054840;28;20944;-74
2021/12/02 04:55:46;;;;;;;2.10;0.63;;;5.30;99.90;;;;;;5061122;28;20489;-74
2021/12/02 04:58:13;;;;;;;2.13;0.90;;;5.40;99.90;;;;;;5063089;28;20473;-74
2021/12/02 05:00:39;;;;;;;2.20;0.80;;;5.30;99.90;;;;;;5069405;28;20483;-75
2021/12/02 05:03:06;;;;;;;1.25;0.95;;;5.30;99.90;;;;;;5061002;28;20446;-74
2021/12/02 05:05:34;;;;;;;0.93;0.83;;;5.30;99.90;;;;;;5064268;28;20459;-75
2021/12/02 05:08:02;;;;;;;3.20;1.20;;;5.30;99.90;;;;;;5068976;28;20441;-74
2021/12/02 05:10:31;;;;;;;2.23;1.03;;;5.40;99.90;;;;;;5067363;28;20449;-73
2021/12/02 05:12:59;;;;;;;1.00;0.80;;;5.40;99.90;;;;;;5059676;28;20997;-75
2021/12/02 05:15:26;;;;;;;3.20;1.27;;;5.40;99.90;;;;;;5065057;28;20540;-74
2021/12/02 05:17:53;;;;;;;1.93;0.80;;;5.40;99.90;;;;;;5068818;28;20446;-71
2021/12/02 05:20:20;;;;;;;1.30;1.13;;;5.30;99.90;;;;;;5056565;28;20478;-73
2021/12/02 05:22:47;;;;;;;2.13;1.00;;;5.30;99.90;;;;;;5066834;28;20448;-73
2021/12/02 05:25:14;;;;;;;1.40;0.87;;;5.30;99.90;;;;;;5053455;28;20841;-75
2021/12/02 05:27:42;;;;;;;6.73;0.80;;;5.40;99.90;;;;;;5070340;28;20548;-75
2021/12/02 05:30:10;;;;;;;2.37;0.93;;;5.30;99.90;;;;;;5050181;28;20542;-72
2021/12/02 05:32:37;;;;;;;2.73;0.97;;;5.30;99.90;;;;;;5050209;28;20529;-72
2021/12/02 05:35:05;;;;;;;1.00;0.80;;;5.30;99.90;;;;;;5050085;28;20964;-74
2021/12/02 05:37:32;;;;;;;2.27;1.30;;;5.20;99.90;;;;;;5055187;28;20865;-73
2021/12/02 05:39:59;;;;;;;2.40;1.00;;;5.20;99.90;;;;;;5062355;28;20552;-75
2021/12/02 05:42:26;;;;;;;1.97;1.07;;;5.10;99.90;;;;;;5069951;28;20475;-74
2021/12/02 05:44:54;;;;;;;0.90;0.63;;;5.10;99.90;;;;;;5070219;28;20844;-71
2021/12/02 05:47:21;;;;;;;1.33;0.97;;;5.10;99.90;;;;;;5057953;28;20438;-71
2021/12/02 05:49:48;;;;;;;1.57;1.07;;;5.10;99.90;;;;;;5070734;28;20518;-72
2021/12/02 05:52:15;;;;;;;1.37;0.87;;;5.10;99.90;;;;;;5069846;28;20484;-73
2021/12/02 05:54:42;;;;;;;1.83;1.07;;;5.10;99.90;;;;;;5070945;28;20572;-73
2021/12/02 05:57:09;;;;;;;1.00;0.80;;;5.30;99.90;;;;;;5070079;28;20445;-73
2021/12/02 05:59:35;;;;;;;1.33;1.07;;;5.30;99.90;;;;;;5068721;28;20480;-73
2021/12/02 06:02:06;;;;;;;1.47;0.77;;;5.20;99.90;;;;;;5066545;28;20887;-72
2021/12/02 06:04:34;;;;;;;1.70;0.70;;;5.20;99.90;;;;;;5070832;28;20461;-72
2021/12/02 06:07:01;;;;;;;1.47;0.90;;;5.10;99.90;;;;;;5070017;28;20441;-72
2021/12/02 06:09:28;;;;;;;1.00;0.80;;;5.30;99.90;;;;;;5070486;28;20488;-72
2021/12/02 06:11:55;;;;;;;3.80;1.00;;;5.20;99.90;;;;;;5069876;28;20449;-72
2021/12/02 06:14:22;;;;;;;1.50;0.97;;;5.20;99.90;;;;;;5070869;28;20465;-72
2021/12/02 06:16:49;;;;;;;0.90;0.73;;;5.10;99.90;;;;;;5070899;28;20541;-72
2021/12/02 06:19:17;;;;;;;2.80;0.90;;;5.10;99.90;;;;;;5070424;28;20488;-72
2021/12/02 06:21:44;;;;;;;2.30;1.00;;;5.00;99.90;;;;;;5069875;28;20449;-73
2021/12/02 06:24:11;;;;;;;1.30;0.80;;;5.00;99.90;;;;;;5070091;28;20814;-72
2021/12/02 06:26:38;;;;;;;4.13;0.80;;;5.10;99.90;;;;;;5070630;28;20457;-73
2021/12/02 06:29:05;;;;;;;1.37;0.93;;;5.20;99.90;;;;;;5070062;28;20532;-72
2021/12/02 06:31:32;;;;;;;2.23;0.77;;;5.20;99.90;;;;;;5069818;28;20452;-72
2021/12/02 06:33:59;;;;;;;4.33;0.90;;;5.00;99.90;;;;;;5070137;28;20889;-72
2021/12/02 06:36:28;;;;;;;1.37;1.17;;;4.90;99.90;;;;;;5070272;28;20960;-73
2021/12/02 06:38:54;;;;;;;1.10;1.00;;;4.90;99.90;;;;;;5070000;28;20532;-72
2021/12/02 06:41:21;;;;;;;1.10;0.93;;;4.90;99.90;;;;;;5070085;28;20449;-72
2021/12/02 06:43:48;;;;;;;1.37;1.10;;;4.90;99.90;;;;;;5070509;28;20576;-72
2021/12/02 06:46:15;;;;;;;1.70;0.60;;;4.80;99.90;;;;;;5063097;28;20481;-72
2021/12/02 06:48:42;;;;;;;2.30;0.60;;;4.90;99.90;;;;;;5051562;28;20835;-72
2021/12/02 06:51:13;;;;;;;1.47;1.37;;;4.80;99.90;;;;;;5060691;28;20453;-72
2021/12/02 06:53:41;;;;;;;1.07;0.90;;;4.70;99.90;;;;;;5072602;28;20952;-72
2021/12/02 06:56:08;;;;;;;4.63;0.97;;;4.60;99.90;;;;;;5053619;28;20446;-72
2021/12/02 06:58:35;;;;;;;1.97;0.80;;;4.50;99.90;;;;;;5054022;28;20456;-72
2021/12/02 07:01:02;;;;;;;1.47;0.80;;;4.50;99.90;;;;;;5052971;28;20533;-72
2021/12/02 07:03:29;;;;;;;1.50;0.80;;;4.60;99.90;;;;;;5053957;28;20472;-72
2021/12/02 07:05:56;;;;;;;1.77;1.67;;;4.70;99.90;;;;;;5053307;28;20514;-72
2021/12/02 07:08:23;;;;;;;4.10;0.90;;;4.70;99.90;;;;;;5053730;28;20442;-72
2021/12/02 07:10:52;;;;;;;1.30;0.90;;;4.50;99.90;;;;;;5053357;28;20453;-73
2021/12/02 07:13:19;;;;;;;1.37;0.90;;;4.60;99.90;;;;;;5053809;28;20454;-72
2021/12/02 07:15:50;;;;;;;1.70;0.97;;;4.50;99.90;;;;;;5053707;28;20450;-72
2021/12/02 07:18:17;;;;;;;4.70;1.10;;;4.50;99.90;;;;;;5053604;28;20450;-73
2021/12/02 07:20:46;;;;;;;2.70;1.30;;;4.60;99.90;;;;;;5053429;28;20466;-72
2021/12/02 07:23:14;;;;;;;2.10;1.33;;;4.60;99.90;;;;;;5053072;28;20478;-73
2021/12/02 07:25:41;;;;;;;1.20;1.00;;;5.00;99.90;;;;;;5060606;28;20490;-73
2021/12/02 07:28:12;;;;;;;0.83;0.77;;;5.10;99.90;;;;;;5075221;28;20451;-74
2021/12/02 07:30:39;;;;;;;2.23;1.10;;;4.90;99.90;;;;;;5076488;28;20483;-73
2021/12/02 07:33:09;;;;;;;2.13;1.93;;;4.90;99.90;;;;;;5062052;28;20578;-73
2021/12/02 07:35:36;;;;;;;1.30;0.90;;;4.90;99.90;;;;;;5063008;28;20537;-72
2021/12/02 07:38:04;;;;;;;1.00;0.70;;;5.00;99.90;;;;;;5053027;28;20524;-72
2021/12/02 07:40:35;;;;;;;2.37;0.80;;;5.00;99.90;;;;;;5065711;28;20532;-73
2021/12/02 07:43:02;;;;;;;2.60;1.10;;;5.10;99.90;;;;;;5060269;28;20481;-72
2021/12/02 07:45:35;;;;;;;1.80;0.90;;;5.50;99.90;;;;;;5072661;28;20489;-73
2021/12/02 07:48:03;;;;;;;1.90;0.90;;;5.40;99.90;;;;;;5052432;28;20442;-73
2021/12/02 07:50:31;;;;;;;1.83;0.90;;;5.50;99.90;;;;;;5052496;28;20478;-73
2021/12/02 07:53:01;;;;;;;1.17;0.80;;;5.60;99.90;;;;;;5052616;28;20467;-73
2021/12/02 07:55:30;;;;;;;2.00;0.70;;;5.70;27.20;;;;;;5053159;28;20846;-73
2021/12/02 07:57:58;;;;;;;1.20;0.70;;;5.50;1.00;;;;;;5052454;28;20580;-73
2021/12/02 08:00:27;;;;;;;3.43;2.30;;;5.30;26.60;;;;;;5052197;28;20533;-73
2021/12/02 08:02:56;;;;;;;1.43;1.00;;;5.20;99.90;;;;;;5051930;28;20481;-72
2021/12/02 08:05:26;;;;;;;2.33;1.00;;;5.10;99.90;;;;;;5052738;28;20518;-73
2021/12/02 08:07:54;;;;;;;2.87;1.13;;;5.00;99.90;;;;;;5052242;28;20508;-71
2021/12/02 08:10:22;;;;;;;1.70;1.40;;;5.00;99.90;;;;;;5051941;28;20957;-72
2021/12/02 08:12:50;;;;;;;7.40;1.17;;;4.90;99.90;;;;;;5052434;28;20545;-72
2021/12/02 08:15:20;;;;;;;0.90;0.70;;;4.90;99.90;;;;;;5052733;28;20453;-74
2021/12/02 08:17:47;;;;;;;2.30;1.13;;;4.90;99.90;;;;;;5052763;28;20446;-74
2021/12/02 08:20:16;;;;;;;1.53;0.90;;;4.90;99.90;;;;;;5051628;28;20541;-74
2021/12/02 08:22:43;;;;;;;1.40;1.23;;;4.90;99.90;;;;;;5052413;28;20452;-73
2021/12/02 08:25:10;;;;;;;1.90;1.50;;;4.90;99.90;;;;;;5051389;28;20577;-73
2021/12/02 08:27:37;;;;;;;2.10;1.43;;;4.90;99.90;;;;;;5052420;28;20877;-74
2021/12/02 08:30:06;;;;;;;2.70;1.30;;;5.00;99.90;;;;;;5051316;28;20446;-73
2021/12/02 08:32:35;;;;;;;1.60;1.23;;;5.20;99.90;;;;;;5052243;28;20779;-72
2021/12/02 08:35:02;;;;;;;1.30;1.07;;;5.30;99.90;;;;;;5051666;28;20850;-72
2021/12/02 08:37:32;;;;;;;3.33;1.53;;;5.40;99.90;;;;;;5052033;28;20564;-72
2021/12/02 08:40:00;;;;;;;1.90;1.60;;;5.40;99.90;;;;;;5051322;28;20446;-73
2021/12/02 08:42:30;;;;;;;2.00;1.47;;;;;;;;;;5054623;28;20454;-72
2021/12/02 08:44:57;;;;;;;1.83;1.17;;;;;;;;;;5071239;28;20476;-73
2021/12/02 08:47:27;;;;;;;2.10;1.30;;;;;;;;;;5055464;28;20534;-72
2021/12/02 08:49:54;;;;;;;1.50;1.30;;;;;;;;;;5050774;28;21000;-72
2021/12/02 08:52:22;;;;;;;3.53;1.50;;;;;;;;;;5052007;28;20462;-73
2021/12/02 08:54:51;;;;;;;2.90;1.57;;;;;;;;;;5051843;28;20461;-73
2021/12/02 08:57:19;;;;;;;2.47;1.60;;;;;;;;;;5051827;28;20451;-73
2021/12/02 08:59:46;;;;;;;1.50;1.10;;;;;;;;;;5051148;28;20442;-73
2021/12/02 09:02:13;;;;;;;1.80;1.27;;;;;;;;;;5051131;28;20452;-73
2021/12/02 09:04:41;;;;;;;2.77;1.40;;;;;;;;;;5051428;28;20517;-74
2021/12/02 09:07:08;;;;;;;3.00;1.30;;;;;;;;;;5050982;28;20469;-73
2021/12/02 09:09:36;;;;;;;1.50;1.27;;;;;;;;;;5051326;28;20451;-73
2021/12/02 09:12:05;;;;;;;1.73;1.60;;;;;;;;;;5050112;28;20454;-73
2021/12/02 09:14:32;;;;;;;1.20;1.10;;;;;;;;;;5051325;28;20533;-73
2021/12/02 09:16:59;;;;;;;2.60;1.33;;;;;;;;;;5051008;28;20450;-73
2021/12/02 09:19:26;;;;;;;1.57;1.30;;;;;;;;;;5051125;28;20442;-73
2021/12/02 09:21:54;;;;;;;1.53;1.40;;;;;;;;;;5050938;28;20529;-73
2021/12/02 09:24:21;;;;;;;2.70;1.17;;;;;;;;;;5051422;28;20887;-73
2021/12/02 09:26:48;;;;;;;1.93;0.90;;;;;;;;;;5051040;28;20497;-73
2021/12/02 09:29:18;;;;;;;1.87;1.40;;;;;;;;;;5062489;28;20959;-73
2021/12/02 09:31:45;;;;;;;2.13;1.50;;;;;;;;;;5065059;28;20450;-73
2021/12/02 09:34:12;;;;;;;2.17;1.57;;;;;;;;;;5050395;28;20797;-73
2021/12/02 09:36:40;;;;;;;1.80;1.67;;;;;;;;;;5057860;28;20456;-73
2021/12/02 09:39:08;;;;;;;1.67;1.30;;;;;;;;;;5070158;28;20437;-72
2021/12/02 09:41:36;;;;;;;1.53;1.43;;;;;;;;;;5071172;28;20532;-73
2021/12/02 09:44:03;;;;;;;2.00;1.23;;;;;;;;;;5070332;28;21046;-73
2021/12/02 09:46:32;;;;;;;1.00;0.80;;;;;;;;;;5061979;28;21048;-72
2021/12/02 09:49:02;;;;;;;1.53;0.80;;;;;;;;;;5050399;28;20457;-74
2021/12/02 09:51:33;;;;;;;2.53;1.30;;;;;;;;;;5050573;28;20450;-72
2021/12/02 09:54:06;;;;;;;1.43;1.00;;;;;;;;;;5050433;28;20443;-72
2021/12/02 09:56:35;;;;;;;1.80;0.90;;;;;;;;;;5051086;28;20453;-72
2021/12/02 09:59:06;;;;;;;1.93;1.40;;;;;;;;;;5050436;28;20541;-71
2021/12/02 10:01:40;;;;;;;2.30;1.33;;;;;;;;;;5051113;28;20442;-72
2021/12/02 10:04:09;;;;;;;3.47;1.07;;;;;;;;;;5050317;28;20507;-73
2021/12/02 10:06:37;;;;;;;1.30;0.97;;;;;;;;;;5050779;28;20482;-72
2021/12/02 10:09:10;;;;;;;1.90;1.00;;;;;;;;;;5050680;28;20446;-72
2021/12/02 10:11:44;;;;;;;1.50;0.93;;;;;;;;;;5082446;28;20453;-71
2021/12/02 10:14:12;;;;;;;2.03;1.23;;;;;;;;;;5072942;28;20458;-70
2021/12/02 10:16:43;;;;;;;0.90;0.80;;;;;;;;;;5070292;28;20466;-69
2021/12/02 10:19:13;;;;;;;0.70;0.70;;;;;;;;;;5063912;28;20438;-70
2021/12/02 10:21:43;;;;;;;0.90;0.80;;;;;;;;;;5071026;28;20659;-70
2021/12/02 10:24:11;;;;;;;0.90;0.70;;;;;;;;;;5072184;28;20528;-70
2021/12/02 10:26:40;;;;;;;2.60;0.70;;;;;;;;;;5070015;28;20492;-70
2021/12/02 10:29:09;;;;;;;1.00;0.70;;;;;;;;;;5053625;28;20476;-70
2021/12/02 10:31:38;;;;;;;1.73;0.90;;;;;;;;;;5054457;28;20533;-70
2021/12/02 10:34:08;;;;;;;1.17;1.07;;;;;;;;;;5053605;28;20524;-70
2021/12/02 10:36:36;;;;;;;2.23;2.07;;;;;;;;;;5054372;28;20457;-70
2021/12/02 10:39:09;;;;;;;1.37;1.27;;;;;;;;;;5053087;28;20446;-70
2021/12/02 10:41:36;;;;;;;1.60;1.30;;;;;;;;;;5054432;28;20758;-71
2021/12/02 10:44:06;;;;;;;1.20;1.10;;;;;;;;;;5069139;28;20473;-71
2021/12/02 10:46:34;;;;;;;2.27;1.00;;;;;;;;;;5064517;28;20474;-70
2021/12/02 10:49:02;;;;;;;0.87;0.83;;;;;;;;;;5053119;28;20813;-71
2021/12/02 10:51:39;;;;;;;1.37;0.73;;;;;;;;;;5053851;28;20532;-70
2021/12/02 10:54:08;;;;;;;1.10;0.77;;;;;;;;;;5053488;28;20437;-71
2021/12/02 10:56:36;;;;;;;1.00;0.70;;;;;;;;;;5053307;28;20454;-71
2021/12/02 10:59:22;;;;;;;1.37;0.70;;;;;;;;;;5052235;28;20461;-71
2021/12/02 11:01:49;;;;;;;0.73;0.70;;;;;;;;;;5053495;28;20450;-71
2021/12/02 11:04:16;;;;;;;0.97;0.70;;;;;;;;;;5052639;28;20492;-71
2021/12/02 11:06:46;;;;;;;5.13;0.90;;;;;;;;;;5053126;28;20985;-71
2021/12/02 11:09:30;;;;;;;0.87;0.53;;;;;;;;;;5052121;28;20575;-71
2021/12/02 11:12:08;;;;;;;1.33;0.70;;;;;;;;;;5052778;28;20434;-71
2021/12/02 11:14:36;;;;;;;1.20;0.87;;;;;;;;;;5053393;28;20457;-71
2021/12/02 11:17:14;;;;;;;0.90;0.70;;;5.60;99.90;;;;;;5052556;28;20477;-71
2021/12/02 11:19:44;;;;;;;0.80;0.60;;;4.60;99.90;;;;;;5052785;28;20496;-71
2021/12/02 11:22:15;;;;;;;1.17;0.87;;;4.50;99.90;;;;;;5052451;28;20544;-71
2021/12/02 11:24:43;;;;;;;1.77;0.80;;;4.60;99.90;;;;;;5053084;28;20472;-71
2021/12/02 11:27:16;;;;;;;3.23;0.97;;;4.60;99.90;;;;;;5052301;28;20573;-70
2021/12/02 11:29:52;;;;;;;1.17;0.77;;;4.80;99.90;;;;;;5052771;28;20842;-73
2021/12/02 11:32:33;;;;;;;1.00;0.60;;;4.70;99.90;;;;;;5052492;28;20527;-71
2021/12/02 11:35:03;;;;;;;0.73;0.70;;;4.70;99.90;;;;;;5059375;28;20529;-71
2021/12/02 11:37:32;;;;;;;0.80;0.60;;;4.70;99.90;;;;;;5072878;28;20527;-71
2021/12/02 11:40:04;;;;;;;1.50;0.80;;;4.60;99.90;;;;;;5071892;28;20451;-70
2021/12/02 11:42:31;;;;;;;1.90;1.00;;;4.70;99.90;;;;;;5072658;28;20476;-70
2021/12/02 11:44:58;;;;;;;1.23;0.90;;;5.00;99.90;;;;;;5073063;28;20445;-71
2021/12/02 11:47:25;;;;;;;0.70;0.70;;;4.90;99.90;;;;;;5056429;28;20521;-72
2021/12/02 11:49:52;;;;;;;1.47;0.93;;;4.70;99.90;;;;;;5051923;28;20453;-72
2021/12/02 11:52:19;;;;;;;1.77;0.90;;;4.80;99.90;;;;;;5052888;28;20477;-72
2021/12/02 11:54:48;;;;;;;1.03;0.77;;;5.20;99.90;;;;;;5053148;28;20523;-72
2021/12/02 11:57:15;;;;;;;1.00;0.90;;;5.20;3.80;;;;;;5052275;28;20535;-73
2021/12/02 11:59:42;;;;;;;0.83;0.63;;;5.20;1.00;;;;;;5052201;28;20533;-72
2021/12/02 12:02:09;;;;;;;0.97;0.70;;;5.30;1.00;;;;;;5052189;28;20454;-72
2021/12/02 12:04:38;;;;;;;1.00;0.80;;;5.30;1.00;;;;;;5052725;28;20520;-73
2021/12/02 12:07:14;;;;;;;1.63;0.80;;;5.20;1.00;;;;;;5052061;28;20482;-72
2021/12/02 12:09:41;;;;;;;1.27;0.80;;;5.20;1.00;;;;;;5052399;28;20448;-72
2021/12/02 12:12:10;;;;;;;0.80;0.60;;;5.50;1.00;;;;;;5051532;28;20450;-73
2021/12/02 12:14:40;;;;;;;2.07;0.90;;;5.60;1.00;;;;;;5052216;28;20941;-73
2021/12/02 12:17:09;;;;;;;1.23;1.00;;;5.70;99.90;;;;;;5058734;28;20544;-73
2021/12/02 12:19:41;;;;;;;1.00;0.80;;;5.80;99.90;;;;;;5072000;28;20473;-73
2021/12/02 12:22:11;;;;;;;2.30;0.90;;;5.80;99.90;;;;;;5071800;28;20524;-73
2021/12/02 12:24:41;;;;;;;1.50;0.97;;;5.70;99.90;;;;;;5072562;28;20899;-72
2021/12/02 12:27:13;;;;;;;1.67;1.10;;;5.90;1.00;;;;;;5071209;28;20481;-72
2021/12/02 12:29:40;;;;;;;0.80;0.70;;;6.10;1.00;;;;;;5071967;28;20526;-73
2021/12/02 12:32:52;;;;;;;1.20;1.10;;;6.00;99.90;;;;;;5071402;28;20549;-72
2021/12/02 12:38:23;;;;;;;1.37;1.10;;;6.00;99.90;;;;;;5057842;28;20434;-72
2021/12/02 12:40:52;;;;;;;1.40;1.03;;;5.90;99.90;;;;;;5071792;28;20445;-72
2021/12/02 12:43:34;;;;;;;1.70;1.10;;;5.90;99.90;;;;;;5071981;28;20477;-72
2021/12/02 12:46:21;;;;;;;1.70;1.23;;;5.90;99.90;;;;;;5065522;28;20559;-72
2021/12/02 12:48:49;;;;;;;1.13;0.90;;;5.90;99.90;;;;;;5051443;28;20521;-72
2021/12/02 12:51:23;;;;;;;1.10;1.00;;;6.10;99.90;;;;;;5051498;28;20478;-72
2021/12/02 12:53:52;;;;;;;1.10;0.90;;;5.90;99.90;;;;;;5051997;28;20450;-72
2021/12/02 12:56:26;;;;;;;0.80;0.67;;;5.80;99.90;;;;;;5052615;28;20533;-73
2021/12/02 12:59:10;;;;;;;2.30;1.40;;;5.80;99.90;;;;;;5061862;28;20958;-71
2021/12/02 13:01:38;;;;;;;1.23;1.10;;;5.90;99.90;;;;;;5075415;28;20442;-72
2021/12/02 13:04:08;;;;;;;1.17;0.93;;;6.00;99.90;;;;;;5065289;28;20987;-72
2021/12/02 13:07:01;;;;;;;2.40;1.23;;;6.10;1.00;;;;;;5074557;28;20489;-73
2021/12/02 13:09:41;;;;;;;0.97;0.80;;;6.10;99.90;;;;;;5061086;28;20450;-72
2021/12/02 13:12:11;;;;;;;0.90;0.77;;;5.90;1.00;;;;;;5063948;28;20426;-72
2021/12/02 13:14:40;;;;;;;2.13;1.00;;;6.00;1.00;;;;;;5051499;28;20438;-72
2021/12/02 13:17:39;;;;;;;0.90;0.83;;;6.00;1.00;;;;;;5051079;28;20446;-72
2021/12/02 13:20:28;;;;;;;2.50;0.90;;;6.10;1.00;;;;;;5050497;28;20533;-73
2021/12/02 13:23:38;;;;;;;1.90;1.10;;;6.10;1.00;;;;;;5050704;28;20438;-72
2021/12/02 13:26:22;;;;;;;1.13;1.03;;;5.90;99.90;;;;;;5050794;28;20473;-72
2021/12/02 13:28:51;;;;;;;1.77;1.03;;;5.80;99.90;;;;;;5051030;28;20504;-74
2021/12/02 13:31:20;;;;;;;1.20;1.10;;;5.90;99.90;;;;;;5051560;28;20473;-73
2021/12/02 13:33:51;;;;;;;2.63;1.30;;;5.90;99.90;;;;;;5051430;28;20474;-74
2021/12/02 13:36:20;;;;;;;1.90;1.43;;;5.80;1.00;;;;;;5051366;28;20449;-74
2021/12/02 13:39:07;;;;;;;1.90;1.20;;;5.70;99.90;;;;;;5050761;28;20438;-74
2021/12/02 13:41:38;;;;;;;4.83;1.47;;;5.50;99.90;;;;;;5059257;28;20565;-73
2021/12/02 13:44:08;;;;;;;4.03;1.50;;;5.40;1.00;;;;;;5070547;28;20469;-74
2021/12/02 13:46:43;;;;;;;3.13;1.40;;;5.40;49.40;;;;;;5061244;28;20474;-74
2021/12/02 13:49:16;;;;;;;5.30;1.23;;;5.20;99.90;;;;;;5050034;28;20526;-74
2021/12/02 13:54:41;;;;;;;2.10;1.40;;;5.00;99.90;;;;;;5060436;28;20783;-72
2021/12/02 13:57:35;;;;;;;1.10;1.00;;;4.70;99.90;;;;;;5070414;28;20944;-72
2021/12/02 14:00:24;;;;;;;1.67;0.70;;;4.30;99.90;;;;;;5073864;28;20522;-72
2021/12/02 14:02:54;;;;;;;1.20;0.93;;;4.40;99.90;;;;;;5069216;28;20541;-73